Terminal Aerodrome Forecast
Issued by NWS Charleston, WV

Current Version | Previous Version | Graphics & Text | Print | Product List | Glossary On
Versions: 1 2 3 4 5 6 7 8 9 10 11 12 13 14 15 16 17 18 19 20 21 22 23 24
000
FTUS41 KRLX 251500 AAA
TAFCRW
TAF AMD
KCRW 251535Z 2516/2612 25009G15KT P6SM OVC025
     FM252200 24005KT P6SM BKN050
     FM252300 23004KT P6SM SCT040
     FM260100 00000KT P6SM SCT100=

USA.gov is the U.S. government's official web portal to all federal, state and local government web resources and services.